Time;durP1;ratioP1;P1;durP2;ratioP2;P2;SDS_P1;SDS_P2;PMS_P1;PMS_P2;Temp;Humidity;BMP_temperature;BMP_pressure;BME280_temperature;BME280_humidity;BME280_pressure;Samples;Min_cycle;Max_cycle;Signal;HPM_P1;HPM_P2
2023/09/22 00:00:55;;;;;;;4.28;1.13;;;14.20;99.90;;;;;;4840984;29;20054;-79
2023/09/22 00:03:21;;;;;;;1.48;1.17;;;14.20;99.90;;;;;;4796889;29;20050;-80
2023/09/22 00:05:46;;;;;;;1.20;1.10;;;14.20;99.90;;;;;;4825292;29;20104;-79
2023/09/22 00:08:12;;;;;;;1.77;1.00;;;14.30;99.90;;;;;;4810358;29;20051;-80
2023/09/22 00:10:38;;;;;;;3.03;1.52;;;14.20;99.90;;;;;;4813423;29;20058;-79
2023/09/22 00:13:04;;;;;;;1.35;1.20;;;14.20;99.90;;;;;;4811589;29;20061;-79
2023/09/22 00:15:30;;;;;;;3.25;1.13;;;14.10;99.90;;;;;;4809790;29;20039;-80
2023/09/22 00:17:56;;;;;;;2.95;1.05;;;14.20;99.90;;;;;;4811689;29;20081;-79
2023/09/22 00:20:22;;;;;;;2.10;1.45;;;14.20;99.90;;;;;;4831144;29;20133;-79
2023/09/22 00:22:49;;;;;;;1.90;1.80;;;14.20;99.90;;;;;;4800368;29;20043;-80
2023/09/22 00:25:16;;;;;;;2.92;1.60;;;15.10;99.90;;;;;;4837347;29;20123;-80
2023/09/22 00:27:42;;;;;;;2.05;1.80;;;14.20;99.90;;;;;;4832349;29;20046;-80
2023/09/22 00:30:10;;;;;;;2.08;1.85;;;14.20;99.90;;;;;;4820989;29;20563;-79
2023/09/22 00:32:39;;;;;;;2.40;2.20;;;14.20;99.90;;;;;;4847937;29;20046;-79
2023/09/22 00:35:14;;;;;;;2.42;2.22;;;14.20;99.90;;;;;;4817337;29;20061;-80
2023/09/22 00:37:40;;;;;;;6.68;2.72;;;14.20;99.90;;;;;;4801209;29;20046;-80
2023/09/22 00:40:08;;;;;;;4.35;3.08;;;14.20;99.90;;;;;;4850660;29;20106;-79
2023/09/22 00:42:34;;;;;;;3.72;3.30;;;14.20;99.90;;;;;;4815270;29;20111;-78
2023/09/22 00:45:00;;;;;;;6.07;3.83;;;14.20;99.90;;;;;;4816971;29;20042;-79
2023/09/22 00:47:26;;;;;;;11.32;4.38;;;14.20;99.90;;;;;;4854291;29;20171;-80
2023/09/22 00:49:53;;;;;;;7.78;5.10;;;14.20;99.90;;;;;;4817676;29;20065;-79
2023/09/22 00:52:22;;;;;;;6.93;6.32;;;14.20;99.90;;;;;;4819365;29;20099;-80
2023/09/22 00:54:51;;;;;;;6.57;6.00;;;14.20;99.90;;;;;;4847864;29;20054;-80
2023/09/22 00:57:17;;;;;;;7.90;7.10;;;14.90;99.90;;;;;;4817618;29;20065;-79
2023/09/22 00:59:46;;;;;;;8.70;7.90;;;14.20;99.90;;;;;;4824902;29;20077;-80
2023/09/22 01:02:12;;;;;;;10.32;8.32;;;14.20;99.90;;;;;;4843948;29;20129;-79
2023/09/22 01:04:37;;;;;;;11.23;9.55;;;14.20;99.90;;;;;;4832394;29;20125;-80
2023/09/22 01:07:03;;;;;;;10.15;9.15;;;14.20;99.90;;;;;;4832900;29;20046;-79
2023/09/22 01:09:29;;;;;;;9.88;8.95;;;14.60;99.90;;;;;;4829281;29;20958;-79
2023/09/22 01:11:55;;;;;;;11.50;10.38;;;15.20;99.90;;;;;;4802686;29;20046;-80
2023/09/22 01:14:21;;;;;;;15.57;11.13;;;14.20;99.90;;;;;;4832827;29;20125;-78
2023/09/22 01:16:47;;;;;;;11.93;9.70;;;14.20;99.90;;;;;;4806006;29;20130;-78
2023/09/22 01:19:16;;;;;;;12.90;10.90;;;14.20;99.90;;;;;;4820569;29;20060;-80
2023/09/22 01:21:46;;;;;;;13.85;10.93;;;14.20;99.90;;;;;;4824767;29;20050;-80
2023/09/22 01:24:13;;;;;;;12.52;11.20;;;14.20;99.90;;;;;;4823280;29;20050;-79
2023/09/22 01:26:39;;;;;;;11.32;10.18;;;14.20;99.90;;;;;;4833927;29;20106;-79
2023/09/22 01:29:08;;;;;;;13.90;10.77;;;14.20;99.90;;;;;;4801458;29;20074;-80
2023/09/22 01:31:35;;;;;;;13.20;11.80;;;14.20;99.90;;;;;;4835190;29;20085;-79
2023/09/22 01:34:04;;;;;;;12.63;11.48;;;14.20;99.90;;;;;;4821078;29;20042;-80
2023/09/22 01:36:31;;;;;;;13.93;12.50;;;14.20;99.90;;;;;;4834707;29;20050;-79
2023/09/22 01:39:01;;;;;;;15.32;12.32;;;15.30;99.90;;;;;;4827385;29;20085;-78
2023/09/22 01:41:27;;;;;;;13.20;11.90;;;14.20;99.90;;;;;;4805088;29;20103;-80
2023/09/22 01:43:53;;;;;;;13.82;12.43;;;14.30;99.90;;;;;;4819937;29;20050;-80
2023/09/22 01:46:19;;;;;;;14.82;13.32;;;14.20;99.90;;;;;;4806848;29;20511;-78
2023/09/22 01:48:44;;;;;;;15.38;13.90;;;14.20;99.90;;;;;;4828803;29;20149;-80
2023/09/22 01:51:10;;;;;;;15.82;14.13;;;14.80;99.90;;;;;;4802686;29;20043;-80
2023/09/22 01:53:36;;;;;;;14.65;13.20;;;14.30;99.90;;;;;;4848543;29;20388;-80
2023/09/22 01:56:01;;;;;;;17.60;14.05;;;14.30;99.90;;;;;;4819296;29;20117;-79
2023/09/22 01:58:30;;;;;;;18.85;15.30;;;14.90;99.90;;;;;;4820110;29;20057;-79
2023/09/22 02:00:57;;;;;;;19.20;15.60;;;14.30;99.90;;;;;;4819133;29;20041;-80
2023/09/22 02:03:22;;;;;;;18.27;16.35;;;13.70;99.90;;;;;;4830627;29;20046;-79
2023/09/22 02:05:48;;;;;;;17.80;15.18;;;14.30;99.90;;;;;;4830910;29;20195;-79
2023/09/22 02:08:14;;;;;;;17.40;15.57;;;14.30;99.90;;;;;;4846906;29;20051;-80
2023/09/22 02:10:39;;;;;;;19.05;17.15;;;14.30;99.90;;;;;;4848025;29;20062;-80
2023/09/22 02:13:07;;;;;;;21.10;17.15;;;14.20;99.90;;;;;;4802144;29;20482;-80
2023/09/22 02:15:33;;;;;;;21.83;16.25;;;14.30;99.90;;;;;;4832725;29;20046;-78
2023/09/22 02:17:59;;;;;;;19.60;17.63;;;14.30;99.90;;;;;;4805573;29;20057;-80
2023/09/22 02:20:25;;;;;;;20.80;16.98;;;14.30;99.90;;;;;;4804177;29;20116;-80
2023/09/22 02:22:53;;;;;;;19.52;17.55;;;14.30;99.90;;;;;;4846972;29;20046;-80
2023/09/22 02:25:19;;;;;;;20.00;17.92;;;14.30;99.90;;;;;;4845662;29;20062;-80
2023/09/22 02:27:49;;;;;;;23.90;18.13;;;14.30;99.90;;;;;;4818971;29;20062;-80
2023/09/22 02:30:17;;;;;;;23.00;20.20;;;14.30;99.90;;;;;;4840401;29;20042;-80
2023/09/22 02:32:46;;;;;;;21.38;19.10;;;14.20;99.90;;;;;;4830822;29;20715;-80
2023/09/22 02:35:12;;;;;;;22.05;19.15;;;14.20;99.90;;;;;;4817820;29;20159;-79
2023/09/22 02:37:37;;;;;;;23.58;18.55;;;14.20;99.90;;;;;;4817054;29;20042;-80
2023/09/22 02:40:03;;;;;;;21.05;18.92;;;14.20;99.90;;;;;;4804245;29;20461;-80
2023/09/22 02:42:30;;;;;;;22.60;20.20;;;14.20;99.90;;;;;;4841262;29;20461;-80
2023/09/22 02:44:56;;;;;;;23.42;19.48;;;14.20;99.90;;;;;;4828850;29;20200;-79
2023/09/22 02:47:22;;;;;;;21.02;18.70;;;14.20;99.90;;;;;;4845100;29;20519;-79
2023/09/22 02:49:49;;;;;;;23.50;19.83;;;14.30;99.90;;;;;;4810092;29;20523;-80
2023/09/22 02:52:15;;;;;;;22.75;20.35;;;14.10;99.90;;;;;;4803429;29;20046;-79
2023/09/22 02:54:40;;;;;;;21.88;19.63;;;14.20;99.90;;;;;;4796280;29;20207;-79
2023/09/22 02:57:06;;;;;;;22.45;19.88;;;14.10;99.90;;;;;;4841816;29;20066;-79
2023/09/22 02:59:32;;;;;;;20.50;18.50;;;14.10;99.90;;;;;;4795814;29;20042;-77
2023/09/22 03:01:58;;;;;;;21.63;19.10;;;14.10;99.90;;;;;;4814519;29;20054;-79
2023/09/22 03:04:24;;;;;;;22.67;18.83;;;14.10;99.90;;;;;;4842821;29;20077;-79
2023/09/22 03:06:49;;;;;;;19.42;17.42;;;14.10;99.90;;;;;;4797155;29;20073;-79
2023/09/22 03:09:15;;;;;;;24.00;18.23;;;14.10;99.90;;;;;;4797804;29;20058;-79
2023/09/22 03:11:41;;;;;;;18.05;16.35;;;14.10;99.90;;;;;;4811372;29;20057;-79
2023/09/22 03:14:07;;;;;;;19.58;17.55;;;14.00;99.90;;;;;;4844285;29;20168;-79
2023/09/22 03:16:33;;;;;;;20.98;17.90;;;14.00;99.90;;;;;;4842937;29;20134;-80
2023/09/22 03:18:59;;;;;;;19.40;16.90;;;14.10;99.90;;;;;;4813398;29;20050;-79
2023/09/22 03:21:25;;;;;;;20.05;17.20;;;14.00;99.90;;;;;;4802018;29;20083;-79
2023/09/22 03:23:51;;;;;;;24.88;18.45;;;13.90;99.90;;;;;;4817946;29;20537;-80
2023/09/22 03:26:18;;;;;;;21.15;17.58;;;13.90;99.90;;;;;;4819478;29;20042;-78
2023/09/22 03:28:48;;;;;;;22.77;17.95;;;14.50;99.90;;;;;;4838275;29;20046;-80
2023/09/22 03:31:13;;;;;;;25.13;17.58;;;13.70;99.90;;;;;;4813744;29;20059;-80
2023/09/22 03:33:43;;;;;;;18.63;16.60;;;13.80;99.90;;;;;;4814784;29;20046;-80
2023/09/22 03:36:12;;;;;;;18.67;16.27;;;13.80;99.90;;;;;;4796768;29;20302;-80
2023/09/22 03:38:40;;;;;;;20.30;16.02;;;13.80;99.90;;;;;;4816565;29;20076;-79
2023/09/22 03:41:05;;;;;;;17.33;14.73;;;14.20;99.90;;;;;;4818645;29;20293;-79
2023/09/22 03:43:33;;;;;;;17.88;16.08;;;13.80;99.90;;;;;;4818593;29;20046;-79
2023/09/22 03:45:59;;;;;;;17.13;14.48;;;13.80;99.90;;;;;;4815836;29;20109;-80
2023/09/22 03:48:28;;;;;;;18.70;14.65;;;13.80;99.90;;;;;;4843707;29;20061;-79
2023/09/22 03:50:54;;;;;;;15.88;14.02;;;13.80;99.90;;;;;;4818683;29;20050;-79
2023/09/22 03:53:19;;;;;;;17.58;13.50;;;13.80;99.90;;;;;;4825070;29;20058;-79
2023/09/22 03:55:45;;;;;;;18.48;14.88;;;14.90;99.90;;;;;;4795947;29;20057;-80
2023/09/22 03:58:11;;;;;;;19.40;15.15;;;13.70;99.90;;;;;;4811207;29;20125;-80
2023/09/22 04:00:37;;;;;;;16.38;13.80;;;13.70;99.90;;;;;;4837667;29;20058;-80
2023/09/22 04:03:05;;;;;;;23.23;14.15;;;13.70;99.90;;;;;;4838798;29;20115;-81
2023/09/22 04:05:30;;;;;;;27.08;16.88;;;13.70;99.90;;;;;;4827224;29;20112;-79
2023/09/22 04:07:57;;;;;;;15.70;14.00;;;14.90;99.90;;;;;;4810958;29;20050;-80
2023/09/22 04:10:23;;;;;;;19.08;15.18;;;13.60;99.90;;;;;;4811707;29;20059;-79
2023/09/22 04:12:52;;;;;;;19.70;14.77;;;13.60;99.90;;;;;;4824189;29;20050;-81
2023/09/22 04:15:23;;;;;;;15.30;13.68;;;13.60;99.90;;;;;;4825860;29;20042;-80
2023/09/22 04:17:50;;;;;;;22.20;14.10;;;13.60;99.90;;;;;;4817478;29;20463;-79
2023/09/22 04:20:26;;;;;;;23.20;15.82;;;13.70;99.90;;;;;;4799724;29;20074;-80
2023/09/22 04:22:53;;;;;;;18.98;15.10;;;13.60;99.90;;;;;;4824560;29;20052;-78
2023/09/22 04:25:29;;;;;;;22.60;15.00;;;13.70;99.90;;;;;;4827078;29;20073;-79
2023/09/22 04:28:07;;;;;;;16.08;13.20;;;13.60;99.90;;;;;;4826632;29;20042;-80
2023/09/22 04:30:37;;;;;;;19.73;14.73;;;13.60;99.90;;;;;;4804622;29;20487;-80
2023/09/22 04:33:04;;;;;;;20.52;14.30;;;13.70;99.90;;;;;;4818971;29;20101;-79
2023/09/22 04:35:32;;;;;;;21.10;15.00;;;13.70;99.90;;;;;;4802703;29;20082;-79
2023/09/22 04:37:59;;;;;;;21.60;16.23;;;14.40;99.90;;;;;;4832882;29;20133;-80
2023/09/22 04:40:29;;;;;;;20.02;15.98;;;13.70;99.90;;;;;;4832898;29;20042;-78
2023/09/22 04:42:55;;;;;;;23.90;15.73;;;15.00;99.90;;;;;;4848088;29;20474;-79
2023/09/22 04:45:21;;;;;;;21.33;16.58;;;13.70;99.90;;;;;;4816864;29;20038;-81
2023/09/22 04:47:48;;;;;;;23.80;17.55;;;13.70;99.90;;;;;;4830663;29;20076;-80
2023/09/22 04:50:17;;;;;;;23.98;17.50;;;14.10;99.90;;;;;;4801304;29;20046;-80
2023/09/22 04:52:43;;;;;;;25.33;18.38;;;14.70;99.90;;;;;;4831633;29;20549;-80
2023/09/22 04:55:09;;;;;;;30.38;19.13;;;13.60;99.90;;;;;;4818181;29;20054;-80
2023/09/22 04:57:36;;;;;;;23.73;18.83;;;13.60;99.90;;;;;;4849451;29;20103;-81
2023/09/22 05:00:09;;;;;;;29.13;19.80;;;13.60;99.90;;;;;;4829097;29;20046;-81
2023/09/22 05:02:35;;;;;;;28.75;19.40;;;13.60;99.90;;;;;;4827407;29;20065;-81
2023/09/22 05:05:01;;;;;;;26.38;20.02;;;13.60;99.90;;;;;;4816329;29;20507;-79
2023/09/22 05:07:28;;;;;;;26.77;19.77;;;13.60;99.90;;;;;;4816777;29;20050;-79
2023/09/22 05:09:53;;;;;;;29.55;20.08;;;13.60;99.90;;;;;;4824089;29;20054;-80
2023/09/22 05:12:19;;;;;;;24.25;19.50;;;13.50;99.90;;;;;;4847484;29;20074;-80
2023/09/22 05:14:45;;;;;;;28.08;19.67;;;13.50;99.90;;;;;;4845188;29;20038;-80
2023/09/22 05:17:11;;;;;;;26.17;19.52;;;14.20;99.90;;;;;;4810348;29;20054;-80
2023/09/22 05:19:36;;;;;;;23.70;18.77;;;13.50;99.90;;;;;;4816707;29;20511;-80
2023/09/22 05:22:03;;;;;;;25.67;20.15;;;13.40;99.90;;;;;;4799438;29;20049;-80
2023/09/22 05:24:29;;;;;;;28.70;20.23;;;13.40;99.90;;;;;;4816918;29;20054;-80
2023/09/22 05:26:54;;;;;;;29.35;20.88;;;13.40;99.90;;;;;;4810822;29;20053;-80
2023/09/22 05:29:20;;;;;;;25.00;20.88;;;13.40;99.90;;;;;;4811112;29;20059;-80
2023/09/22 05:31:46;;;;;;;28.90;21.52;;;13.40;99.90;;;;;;4812210;29;20069;-80
2023/09/22 05:34:11;;;;;;;27.45;21.27;;;14.30;99.90;;;;;;4812574;29;20073;-79
2023/09/22 05:36:37;;;;;;;26.95;21.02;;;13.40;99.90;;;;;;4810564;29;20046;-79
2023/09/22 05:39:05;;;;;;;26.58;20.63;;;13.40;99.90;;;;;;4841180;29;20085;-80
2023/09/22 05:41:31;;;;;;;27.77;21.73;;;13.40;99.90;;;;;;4808055;29;20054;-79
2023/09/22 05:43:57;;;;;;;26.13;21.23;;;13.30;99.90;;;;;;4824634;29;20460;-78
2023/09/22 05:46:23;;;;;;;29.95;21.70;;;13.30;99.90;;;;;;4795677;29;20097;-80
2023/09/22 05:48:49;;;;;;;31.02;22.15;;;13.30;99.90;;;;;;4840085;29;20669;-79
2023/09/22 05:51:15;;;;;;;27.33;22.00;;;13.20;99.90;;;;;;4842267;29;20099;-78
2023/09/22 05:53:41;;;;;;;33.28;24.05;;;13.90;99.90;;;;;;4795001;29;20046;-80
2023/09/22 05:56:08;;;;;;;28.33;21.67;;;13.30;99.90;;;;;;4840423;29;20487;-80
2023/09/22 05:58:35;;;;;;;26.88;22.02;;;13.30;99.90;;;;;;4826434;29;20129;-80
2023/09/22 06:01:09;;;;;;;30.23;23.08;;;13.20;99.90;;;;;;4827786;29;20057;-79
2023/09/22 06:03:37;;;;;;;28.80;23.05;;;13.30;99.90;;;;;;4813368;29;20050;-79
2023/09/22 06:06:13;;;;;;;35.85;24.48;;;13.30;99.90;;;;;;4813662;29;20121;-79
2023/09/22 06:08:41;;;;;;;36.47;24.08;;;13.30;99.90;;;;;;4813039;29;20548;-79
2023/09/22 06:11:08;;;;;;;37.50;24.60;;;13.30;99.90;;;;;;4828394;29;20137;-78
2023/09/22 06:13:34;;;;;;;33.22;23.42;;;13.20;99.90;;;;;;4826943;29;20051;-79
2023/09/22 06:16:00;;;;;;;38.30;24.98;;;13.20;99.90;;;;;;4818050;29;20054;-83
2023/09/22 06:18:26;;;;;;;34.10;23.48;;;13.20;99.90;;;;;;4848806;29;20172;-84
2023/09/22 06:20:56;;;;;;;33.88;23.30;;;13.20;99.90;;;;;;4808572;29;20053;-88
2023/09/22 06:23:23;;;;;;;32.97;23.45;;;13.20;99.90;;;;;;4824209;29;20941;-88
2023/09/22 06:25:54;;;;;;;33.70;23.88;;;13.20;99.90;;;;;;4840909;29;20042;-84
2023/09/22 06:28:20;;;;;;;31.13;22.50;;;13.20;99.90;;;;;;4838075;29;20108;-82
2023/09/22 06:30:47;;;;;;;32.75;23.50;;;13.20;99.90;;;;;;4848062;29;20410;-80
2023/09/22 06:33:16;;;;;;;31.33;24.42;;;13.20;99.90;;;;;;4806154;29;20137;-80
2023/09/22 06:35:43;;;;;;;29.92;22.13;;;13.20;99.90;;;;;;4804830;29;20054;-82
2023/09/22 06:38:16;;;;;;;32.97;24.08;;;13.20;99.90;;;;;;4828527;29;20046;-81
2023/09/22 06:40:44;;;;;;;28.50;22.20;;;13.20;99.90;;;;;;4516954;29;10001533;-81
2023/09/22 06:43:11;;;;;;;34.67;22.92;;;13.20;99.90;;;;;;4825180;29;20042;-81
2023/09/22 06:45:39;;;;;;;31.27;23.20;;;13.60;99.90;;;;;;4818716;29;20058;-82
2023/09/22 06:48:05;;;;;;;28.52;21.33;;;13.20;99.90;;;;;;4818788;29;20399;-82
2023/09/22 06:50:35;;;;;;;31.95;21.40;;;13.20;99.90;;;;;;4811003;29;20073;-82
2023/09/22 06:53:01;;;;;;;29.13;22.02;;;13.20;99.90;;;;;;4794661;29;20073;-83
2023/09/22 06:55:27;;;;;;;30.77;21.25;;;13.10;99.90;;;;;;4796795;29;20046;-82
2023/09/22 06:57:53;;;;;;;28.65;20.10;;;14.20;99.90;;;;;;4843546;29;20065;-82
2023/09/22 07:00:22;;;;;;;32.40;19.88;;;13.30;99.90;;;;;;4823558;29;20046;-83
2023/09/22 07:02:48;;;;;;;29.30;19.83;;;13.30;99.90;;;;;;4829946;29;20076;-83
2023/09/22 07:05:15;;;;;;;33.92;21.13;;;13.20;99.90;;;;;;4816559;29;20118;-83
2023/09/22 07:07:41;;;;;;;27.08;19.88;;;13.20;99.90;;;;;;4818628;29;20046;-84
2023/09/22 07:10:10;;;;;;;25.67;18.15;;;13.30;99.90;;;;;;4816762;29;20407;-83
2023/09/22 07:12:37;;;;;;;23.95;18.20;;;13.30;99.90;;;;;;4832524;29;20670;-83
2023/09/22 07:15:04;;;;;;;29.42;17.58;;;13.90;99.90;;;;;;4833082;29;20050;-82
2023/09/22 07:17:31;;;;;;;26.67;18.00;;;13.30;99.90;;;;;;4823152;29;20054;-82
2023/09/22 07:19:57;;;;;;;26.45;17.80;;;13.30;99.90;;;;;;4825224;29;20051;-83
2023/09/22 07:22:23;;;;;;;28.25;17.95;;;14.70;99.90;;;;;;4832487;29;20115;-83
2023/09/22 07:24:53;;;;;;;30.92;17.75;;;13.30;99.90;;;;;;4847196;29;20740;-84
2023/09/22 07:27:18;;;;;;;27.23;16.33;;;13.30;99.90;;;;;;4837824;29;20046;-82
2023/09/22 07:29:45;;;;;;;25.63;16.95;;;14.20;99.90;;;;;;4815542;29;20053;-82
2023/09/22 07:32:10;;;;;;;22.70;17.08;;;13.40;99.90;;;;;;4801535;29;20104;-81
2023/09/22 07:34:36;;;;;;;26.55;17.52;;;13.50;99.90;;;;;;4802373;29;20050;-83
2023/09/22 07:37:03;;;;;;;25.00;18.00;;;13.30;99.90;;;;;;4817866;29;20050;-84
2023/09/22 07:39:28;;;;;;;25.38;17.58;;;13.30;99.90;;;;;;4829296;29;20503;-81
2023/09/22 07:41:54;;;;;;;23.52;16.17;;;13.30;99.90;;;;;;4800163;29;20592;-83
2023/09/22 07:44:21;;;;;;;23.85;16.35;;;13.30;99.90;;;;;;4816865;29;20486;-84
2023/09/22 07:46:50;;;;;;;19.85;15.70;;;13.30;99.90;;;;;;4832858;29;20050;-83
2023/09/22 07:49:16;;;;;;;25.00;17.13;;;13.30;99.90;;;;;;4821474;29;20049;-81
2023/09/22 07:51:42;;;;;;;25.70;15.45;;;13.30;99.90;;;;;;4842552;29;20122;-81
2023/09/22 07:54:10;;;;;;;24.30;16.20;;;13.40;99.90;;;;;;4816770;29;20538;-81
2023/09/22 07:56:36;;;;;;;19.27;15.27;;;13.40;99.90;;;;;;4809729;29;20388;-81
2023/09/22 07:59:03;;;;;;;30.27;14.82;;;13.30;99.90;;;;;;4816576;29;20046;-82
2023/09/22 08:01:29;;;;;;;19.02;14.80;;;13.30;99.90;;;;;;4802656;29;20045;-82
2023/09/22 08:03:55;;;;;;;20.10;13.73;;;13.30;99.90;;;;;;4839247;29;20145;-82
2023/09/22 08:06:21;;;;;;;19.35;14.07;;;13.40;99.90;;;;;;4815571;29;20113;-81
2023/09/22 08:08:51;;;;;;;17.02;13.10;;;13.50;99.90;;;;;;4832530;29;20057;-81
2023/09/22 08:11:18;;;;;;;22.77;13.60;;;13.40;99.90;;;;;;4825709;29;20068;-82
2023/09/22 08:13:47;;;;;;;18.98;13.57;;;13.50;99.90;;;;;;4845513;29;20124;-82
2023/09/22 08:16:49;;;;;;;18.13;13.07;;;13.50;99.90;;;;;;4838383;29;20088;-79
2023/09/22 08:19:43;;;;;;;19.13;13.93;;;13.50;99.90;;;;;;4817225;29;20038;-80
2023/09/22 08:22:10;;;;;;;20.42;13.88;;;13.60;99.90;;;;;;4834962;29;20131;-80
2023/09/22 08:24:36;;;;;;;23.00;13.73;;;13.60;99.90;;;;;;4822110;29;20110;-81
2023/09/22 08:27:02;;;;;;;19.05;13.45;;;15.10;99.90;;;;;;4817161;29;20042;-87
2023/09/22 08:29:28;;;;;;;17.10;12.93;;;14.30;99.90;;;;;;4815766;29;20099;-83
2023/09/22 08:31:55;;;;;;;15.25;12.70;;;13.60;99.90;;;;;;4817940;29;20051;-87
2023/09/22 08:34:21;;;;;;;16.88;12.00;;;13.60;99.90;;;;;;4817080;29;20122;-86
2023/09/22 08:36:47;;;;;;;15.70;12.95;;;13.60;99.90;;;;;;4817746;29;20122;-85
2023/09/22 08:39:15;;;;;;;19.70;12.38;;;13.70;99.90;;;;;;4842950;29;21337;-87
2023/09/22 08:41:41;;;;;;;13.40;11.88;;;13.70;99.90;;;;;;4807134;29;20045;-82
2023/09/22 08:44:09;;;;;;;16.27;12.15;;;13.70;99.90;;;;;;4816679;29;20068;-84
2023/09/22 08:46:35;;;;;;;14.02;12.10;;;13.70;99.90;;;;;;4817718;29;20054;-84
2023/09/22 08:49:01;;;;;;;13.77;11.32;;;13.70;99.90;;;;;;4794634;29;20054;-82
2023/09/22 08:51:27;;;;;;;11.07;9.73;;;13.80;99.90;;;;;;4800667;29;20517;-78
2023/09/22 08:53:55;;;;;;;11.77;10.05;;;13.80;99.90;;;;;;4823230;29;20590;-80
2023/09/22 08:56:25;;;;;;;15.10;9.75;;;13.80;99.90;;;;;;4827619;29;20050;-87
2023/09/22 08:58:51;;;;;;;10.25;8.90;;;13.90;99.90;;;;;;4826112;29;20050;-84
2023/09/22 09:01:17;;;;;;;10.10;7.53;;;14.00;99.90;;;;;;4466054;29;10000332;-81
2023/09/22 09:03:44;;;;;;;11.40;7.88;;;14.00;99.90;;;;;;4795413;29;20078;-81
2023/09/22 09:06:14;;;;;;;10.93;8.23;;;14.00;99.90;;;;;;4823025;29;20150;-82
2023/09/22 09:08:39;;;;;;;7.50;6.43;;;14.00;99.90;;;;;;4820494;29;20050;-81
2023/09/22 09:11:10;;;;;;;13.95;6.55;;;15.10;99.90;;;;;;4836625;29;20433;-84
2023/09/22 09:13:37;;;;;;;6.95;5.25;;;15.10;99.90;;;;;;4795767;29;20050;-84
2023/09/22 09:16:07;;;;;;;7.15;5.82;;;14.60;99.90;;;;;;4809317;29;20050;-79
2023/09/22 09:18:34;;;;;;;6.82;4.90;;;14.50;99.90;;;;;;4827696;29;20079;-85
2023/09/22 09:21:11;;;;;;;8.70;4.38;;;14.50;99.90;;;;;;4812026;29;20136;-85
2023/09/22 09:23:51;;;;;;;6.68;3.60;;;14.60;99.90;;;;;;4807358;29;20483;-79
2023/09/22 09:26:23;;;;;;;4.35;2.97;;;14.60;99.90;;;;;;4820765;29;20046;-82
2023/09/22 09:28:49;;;;;;;5.93;3.90;;;14.50;99.90;;;;;;4821531;29;20106;-78
2023/09/22 09:31:18;;;;;;;5.00;3.80;;;14.50;99.90;;;;;;4823094;29;20689;-79
2023/09/22 09:33:54;;;;;;;3.95;3.28;;;14.50;99.90;;;;;;4824422;29;20763;-81
2023/09/22 09:36:20;;;;;;;4.38;3.30;;;14.50;99.90;;;;;;4797470;29;20052;-78
2023/09/22 09:38:46;;;;;;;2.22;2.00;;;14.60;99.90;;;;;;4829155;29;20042;-77
2023/09/22 09:41:12;;;;;;;3.15;2.25;;;14.60;99.90;;;;;;4811959;29;20050;-77
2023/09/22 09:43:44;;;;;;;1.95;1.50;;;14.70;99.90;;;;;;4827311;29;20086;-78
2023/09/22 09:46:12;;;;;;;4.47;1.98;;;14.70;99.90;;;;;;4843095;29;20038;-79
2023/09/22 09:48:40;;;;;;;2.92;1.58;;;14.80;99.90;;;;;;4811423;29;20066;-78
2023/09/22 09:51:12;;;;;;;4.07;1.60;;;14.80;99.90;;;;;;4826885;29;20652;-77
2023/09/22 09:53:45;;;;;;;3.95;1.83;;;14.90;99.90;;;;;;4839747;29;20042;-79
2023/09/22 09:56:17;;;;;;;1.10;0.95;;;14.90;99.90;;;;;;4813516;29;20046;-79
2023/09/22 09:58:47;;;;;;;2.15;0.90;;;14.90;99.90;;;;;;4827300;29;20058;-78
2023/09/22 10:01:13;;;;;;;3.47;1.30;;;14.90;99.90;;;;;;4799296;29;20074;-80
2023/09/22 10:03:42;;;;;;;4.28;1.40;;;14.90;99.90;;;;;;4798835;29;20682;-79
2023/09/22 10:06:17;;;;;;;2.45;1.23;;;14.90;99.90;;;;;;4823250;29;20047;-78
2023/09/22 10:08:42;;;;;;;3.08;1.15;;;15.00;99.90;;;;;;4834372;29;20042;-78
2023/09/22 10:11:12;;;;;;;7.57;1.17;;;15.50;99.90;;;;;;4800909;29;20054;-79
2023/09/22 10:13:41;;;;;;;1.92;1.10;;;15.20;99.90;;;;;;4822919;29;20539;-78
2023/09/22 10:16:10;;;;;;;3.17;1.38;;;15.20;99.90;;;;;;4804685;29;20046;-82
2023/09/22 10:18:50;;;;;;;1.85;1.13;;;15.30;99.90;;;;;;4839800;29;20054;-83
2023/09/22 10:21:28;;;;;;;4.20;1.10;;;15.20;99.90;;;;;;4803005;29;20058;-85
2023/09/22 10:24:13;;;;;;;3.80;1.35;;;15.10;99.90;;;;;;4818566;29;20046;-83
2023/09/22 10:27:00;;;;;;;3.60;0.80;;;15.00;99.90;;;;;;4803643;29;20299;-81
2023/09/22 10:29:35;;;;;;;4.35;1.67;;;15.00;99.90;;;;;;4826544;29;20089;-80
2023/09/22 10:32:16;;;;;;;1.45;0.90;;;13.70;99.90;;;;;;4805160;29;20084;-82
2023/09/22 10:35:09;;;;;;;1.38;0.82;;;14.90;99.90;;;;;;4816013;29;20049;-82
2023/09/22 10:37:35;;;;;;;2.38;0.70;;;14.90;99.90;;;;;;4818038;29;20248;-82
2023/09/22 10:40:09;;;;;;;2.88;1.02;;;14.90;99.90;;;;;;4819043;29;20095;-82
2023/09/22 10:42:43;;;;;;;1.85;0.95;;;14.90;99.90;;;;;;4816624;29;20127;-82
2023/09/22 10:45:09;;;;;;;3.10;1.27;;;14.80;99.90;;;;;;4820330;29;20050;-84
2023/09/22 10:47:52;;;;;;;1.88;1.40;;;14.90;99.90;;;;;;4817673;29;20102;-82
2023/09/22 10:50:21;;;;;;;1.85;0.82;;;14.90;99.90;;;;;;4840891;29;20051;-82
2023/09/22 10:52:54;;;;;;;1.83;1.30;;;14.90;99.90;;;;;;4832637;29;20054;-81
2023/09/22 10:55:36;;;;;;;3.42;1.08;;;14.90;99.90;;;;;;4830973;29;20085;-81
2023/09/22 10:58:06;;;;;;;1.70;1.00;;;14.90;99.90;;;;;;4817286;29;20042;-80
2023/09/22 11:00:42;;;;;;;2.00;0.98;;;14.90;99.90;;;;;;4802809;29;20043;-81
2023/09/22 11:03:11;;;;;;;3.28;1.13;;;15.20;99.90;;;;;;4826548;29;20047;-82
2023/09/22 11:05:41;;;;;;;2.92;1.20;;;15.10;99.90;;;;;;4825388;29;20054;-81
2023/09/22 11:08:17;;;;;;;1.80;1.10;;;15.20;99.90;;;;;;4817325;29;20137;-83
2023/09/22 11:10:48;;;;;;;1.25;0.80;;;15.40;99.90;;;;;;4835724;29;20127;-80
2023/09/22 11:13:15;;;;;;;1.33;0.90;;;15.50;99.90;;;;;;4841380;29;20206;-77
2023/09/22 11:15:57;;;;;;;3.53;1.10;;;15.60;99.90;;;;;;4832641;29;20039;-82
2023/09/22 11:18:27;;;;;;;2.58;0.77;;;15.70;99.90;;;;;;4818226;29;20069;-84
2023/09/22 11:20:56;;;;;;;4.07;1.77;;;15.70;99.90;;;;;;4801699;29;20049;-84
2023/09/22 11:23:25;;;;;;;1.00;1.00;;;15.60;99.90;;;;;;4151908;29;10000761;-87
2023/09/22 11:26:09;;;;;;;3.13;0.90;;;15.60;99.90;;;;;;4801088;29;20488;-83
2023/09/22 11:28:43;;;;;;;3.47;1.10;;;15.60;99.90;;;;;;4824917;29;20585;-84
2023/09/22 11:31:11;;;;;;;1.17;0.90;;;15.50;99.90;;;;;;4823852;29;20406;-81
2023/09/22 11:33:41;;;;;;;1.75;1.20;;;15.60;99.90;;;;;;4817605;29;20061;-89
2023/09/22 11:36:07;;;;;;;1.58;0.90;;;15.70;99.90;;;;;;4830397;29;20129;-79
2023/09/22 11:38:35;;;;;;;1.40;0.85;;;15.90;99.90;;;;;;4818767;29;20149;-81
2023/09/22 11:41:40;;;;;;;1.48;0.70;;;15.90;99.90;;;;;;4802517;29;20042;-83
2023/09/22 11:45:16;;;;;;;1.38;0.80;;;15.90;99.90;;;;;;4815840;29;20852;-83
2023/09/22 11:48:07;;;;;;;1.42;0.57;;;15.90;99.90;;;;;;4814277;29;20050;-83
2023/09/22 11:50:34;;;;;;;2.20;0.70;;;15.90;99.90;;;;;;4843912;29;20108;-83
2023/09/22 11:53:29;;;;;;;3.50;0.90;;;15.90;99.90;;;;;;4843218;29;20133;-83
2023/09/22 11:55:55;;;;;;;0.88;0.60;;;15.90;99.90;;;;;;4816100;29;20057;-83
2023/09/22 11:58:21;;;;;;;1.42;0.70;;;15.80;99.90;;;;;;4829970;29;20537;-84
2023/09/22 12:00:47;;;;;;;2.10;0.93;;;15.80;99.90;;;;;;4801656;29;20129;-83
2023/09/22 12:03:12;;;;;;;1.35;0.85;;;15.80;99.90;;;;;;4846154;29;20108;-83
2023/09/22 12:05:38;;;;;;;1.77;0.80;;;15.70;99.90;;;;;;4838423;29;20492;-83
2023/09/22 12:08:09;;;;;;;3.90;1.02;;;15.70;99.90;;;;;;4800786;29;20050;-83
2023/09/22 12:10:35;;;;;;;2.05;1.00;;;15.60;99.90;;;;;;4837829;29;20058;-82
2023/09/22 12:13:02;;;;;;;2.95;0.85;;;15.90;99.90;;;;;;4837439;29;20046;-83
2023/09/22 12:15:27;;;;;;;2.65;0.70;;;15.80;99.90;;;;;;4817228;29;20042;-83
2023/09/22 12:17:53;;;;;;;2.28;1.10;;;15.90;99.90;;;;;;4825661;29;20208;-83
2023/09/22 12:20:21;;;;;;;0.63;0.60;;;15.90;99.90;;;;;;4842727;29;20049;-82
2023/09/22 12:22:46;;;;;;;1.67;0.82;;;16.00;99.90;;;;;;4813624;29;20090;-83
2023/09/22 12:25:12;;;;;;;2.78;1.00;;;16.10;99.90;;;;;;4817702;29;20057;-83
2023/09/22 12:27:39;;;;;;;1.00;0.55;;;16.10;99.90;;;;;;4808375;29;20475;-85
2023/09/22 12:30:06;;;;;;;2.53;0.90;;;16.50;99.90;;;;;;4816651;29;20547;-83
2023/09/22 12:32:32;;;;;;;2.40;0.70;;;16.00;99.90;;;;;;4830954;29;20077;-82
2023/09/22 12:34:59;;;;;;;1.00;0.50;;;16.00;99.90;;;;;;4841321;29;20042;-83
2023/09/22 12:37:25;;;;;;;1.05;0.70;;;16.10;99.90;;;;;;4810803;29;20054;-82
2023/09/22 12:39:50;;;;;;;1.65;0.70;;;16.00;99.90;;;;;;4815314;29;20053;-82